sensor_id;sensor_type;location;lat;lon;timestamp;pressure;altitude;pressure_sealevel;temperature;humidity
4570;BME280;2297;51.442;6.996;2023-12-20T00:00:20;100155.66;;;9.50;62.90
4570;BME280;2297;51.442;6.996;2023-12-20T00:02:46;100152.41;;;9.35;63.40
4570;BME280;2297;51.442;6.996;2023-12-20T00:05:13;100147.19;;;9.32;62.93
4570;BME280;2297;51.442;6.996;2023-12-20T00:07:40;100146.28;;;9.33;63.12
4570;BME280;2297;51.442;6.996;2023-12-20T00:10:09;100148.75;;;9.44;62.07
4570;BME280;2297;51.442;6.996;2023-12-20T00:12:38;100144.09;;;9.08;62.78
4570;BME280;2297;51.442;6.996;2023-12-20T00:15:05;100150.72;;;9.31;62.17
4570;BME280;2297;51.442;6.996;2023-12-20T00:17:32;100156.56;;;9.48;61.87
4570;BME280;2297;51.442;6.996;2023-12-20T00:19:59;100156.59;;;9.47;62.00
4570;BME280;2297;51.442;6.996;2023-12-20T00:22:25;100151.56;;;9.35;61.77
4570;BME280;2297;51.442;6.996;2023-12-20T00:24:52;100161.97;;;9.41;61.78
4570;BME280;2297;51.442;6.996;2023-12-20T00:27:20;100165.72;;;9.27;61.93
4570;BME280;2297;51.442;6.996;2023-12-20T00:29:46;100168.84;;;8.98;62.30
4570;BME280;2297;51.442;6.996;2023-12-20T00:32:15;100169.75;;;8.97;62.33
4570;BME280;2297;51.442;6.996;2023-12-20T00:34:42;100175.38;;;8.75;62.22
4570;BME280;2297;51.442;6.996;2023-12-20T00:37:09;100174.88;;;9.06;61.53
4570;BME280;2297;51.442;6.996;2023-12-20T00:39:36;100172.94;;;9.18;61.13
4570;BME280;2297;51.442;6.996;2023-12-20T00:42:02;100175.19;;;9.39;60.59
4570;BME280;2297;51.442;6.996;2023-12-20T00:44:30;100174.84;;;9.08;61.16
4570;BME280;2297;51.442;6.996;2023-12-20T00:46:57;100182.19;;;8.89;61.50
4570;BME280;2297;51.442;6.996;2023-12-20T00:49:24;100186.78;;;8.74;62.28
4570;BME280;2297;51.442;6.996;2023-12-20T00:51:50;100187.66;;;8.73;61.75
4570;BME280;2297;51.442;6.996;2023-12-20T00:54:18;100190.41;;;8.64;61.75
4570;BME280;2297;51.442;6.996;2023-12-20T00:56:44;100187.41;;;8.90;61.18
4570;BME280;2297;51.442;6.996;2023-12-20T00:59:11;100196.94;;;8.99;61.07
4570;BME280;2297;51.442;6.996;2023-12-20T01:01:39;100191.03;;;8.85;60.99
4570;BME280;2297;51.442;6.996;2023-12-20T01:04:05;100192.53;;;9.00;60.52
4570;BME280;2297;51.442;6.996;2023-12-20T01:06:32;100185.97;;;8.69;60.93
4570;BME280;2297;51.442;6.996;2023-12-20T01:08:59;100183.41;;;8.66;60.63
4570;BME280;2297;51.442;6.996;2023-12-20T01:11:25;100177.94;;;8.78;60.64
4570;BME280;2297;51.442;6.996;2023-12-20T01:13:52;100185.78;;;8.83;59.81
4570;BME280;2297;51.442;6.996;2023-12-20T01:16:19;100179.91;;;8.62;60.38
4570;BME280;2297;51.442;6.996;2023-12-20T01:18:47;100190.66;;;8.45;60.59
4570;BME280;2297;51.442;6.996;2023-12-20T01:21:14;100197.47;;;8.62;59.84
4570;BME280;2297;51.442;6.996;2023-12-20T01:23:41;100189.44;;;8.07;59.95
4570;BME280;2297;51.442;6.996;2023-12-20T01:26:07;100191.59;;;8.43;59.12
4570;BME280;2297;51.442;6.996;2023-12-20T01:28:34;100206.59;;;8.38;59.38
4570;BME280;2297;51.442;6.996;2023-12-20T01:31:01;100210.03;;;8.41;59.24
4570;BME280;2297;51.442;6.996;2023-12-20T01:33:27;100202.94;;;8.46;59.31
4570;BME280;2297;51.442;6.996;2023-12-20T01:35:55;100203.59;;;8.62;58.43
4570;BME280;2297;51.442;6.996;2023-12-20T01:38:22;100205.72;;;8.37;59.12
4570;BME280;2297;51.442;6.996;2023-12-20T01:40:48;100210.84;;;8.46;58.50
4570;BME280;2297;51.442;6.996;2023-12-20T01:43:15;100212.50;;;8.52;58.38
4570;BME280;2297;51.442;6.996;2023-12-20T01:45:42;100213.16;;;8.71;57.80
4570;BME280;2297;51.442;6.996;2023-12-20T01:48:10;100217.34;;;8.85;58.06
4570;BME280;2297;51.442;6.996;2023-12-20T01:50:37;100220.25;;;8.66;58.56
4570;BME280;2297;51.442;6.996;2023-12-20T01:53:07;100204.25;;;8.80;58.51
4570;BME280;2297;51.442;6.996;2023-12-20T01:55:36;100204.28;;;8.78;58.54
4570;BME280;2297;51.442;6.996;2023-12-20T01:58:05;100202.34;;;8.91;58.46
4570;BME280;2297;51.442;6.996;2023-12-20T02:00:33;100203.22;;;8.90;58.69
4570;BME280;2297;51.442;6.996;2023-12-20T02:03:01;100203.72;;;8.56;58.87
4570;BME280;2297;51.442;6.996;2023-12-20T02:05:29;100208.22;;;8.46;58.84
4570;BME280;2297;51.442;6.996;2023-12-20T02:07:55;100211.28;;;8.14;60.15
4570;BME280;2297;51.442;6.996;2023-12-20T02:10:25;100209.28;;;8.33;59.35
4570;BME280;2297;51.442;6.996;2023-12-20T02:12:52;100213.50;;;8.45;58.95
4570;BME280;2297;51.442;6.996;2023-12-20T02:15:18;100206.63;;;8.33;58.78
4570;BME280;2297;51.442;6.996;2023-12-20T02:17:46;100203.19;;;8.31;58.56
4570;BME280;2297;51.442;6.996;2023-12-20T02:20:13;100196.56;;;8.64;57.77
4570;BME280;2297;51.442;6.996;2023-12-20T02:22:41;100206.44;;;8.48;58.28
4570;BME280;2297;51.442;6.996;2023-12-20T02:25:08;100202.25;;;8.34;58.82
4570;BME280;2297;51.442;6.996;2023-12-20T02:27:35;100202.13;;;8.44;58.11
4570;BME280;2297;51.442;6.996;2023-12-20T02:30:02;100193.19;;;8.56;58.18
4570;BME280;2297;51.442;6.996;2023-12-20T02:32:29;100202.13;;;8.43;58.66
4570;BME280;2297;51.442;6.996;2023-12-20T02:34:56;100206.47;;;8.45;58.54
4570;BME280;2297;51.442;6.996;2023-12-20T02:37:22;100208.03;;;8.59;58.37
4570;BME280;2297;51.442;6.996;2023-12-20T02:39:50;100208.25;;;8.43;58.64
4570;BME280;2297;51.442;6.996;2023-12-20T02:42:17;100206.38;;;8.52;58.31
4570;BME280;2297;51.442;6.996;2023-12-20T02:44:44;100206.72;;;8.27;59.44
4570;BME280;2297;51.442;6.996;2023-12-20T02:47:11;100209.34;;;8.28;59.13
4570;BME280;2297;51.442;6.996;2023-12-20T02:49:38;100200.47;;;8.36;58.82
4570;BME280;2297;51.442;6.996;2023-12-20T02:52:05;100213.78;;;8.23;58.91
4570;BME280;2297;51.442;6.996;2023-12-20T02:54:31;100206.44;;;8.48;58.65
4570;BME280;2297;51.442;6.996;2023-12-20T02:56:59;100204.09;;;8.27;58.71
4570;BME280;2297;51.442;6.996;2023-12-20T02:59:26;100201.38;;;8.33;58.88
4570;BME280;2297;51.442;6.996;2023-12-20T03:01:52;100210.94;;;8.40;58.40
4570;BME280;2297;51.442;6.996;2023-12-20T03:04:19;100222.50;;;8.27;58.77
4570;BME280;2297;51.442;6.996;2023-12-20T03:06:46;100214.72;;;8.18;59.33
4570;BME280;2297;51.442;6.996;2023-12-20T03:09:12;100210.91;;;8.42;58.34
4570;BME280;2297;51.442;6.996;2023-12-20T03:11:39;100200.28;;;8.50;58.03
4570;BME280;2297;51.442;6.996;2023-12-20T03:14:07;100198.53;;;8.50;57.65
4570;BME280;2297;51.442;6.996;2023-12-20T03:16:34;100206.00;;;8.15;58.71
4570;BME280;2297;51.442;6.996;2023-12-20T03:19:00;100200.53;;;8.31;58.01
4570;BME280;2297;51.442;6.996;2023-12-20T03:21:27;100201.84;;;7.96;59.08
4570;BME280;2297;51.442;6.996;2023-12-20T03:23:54;100202.41;;;8.21;58.07
4570;BME280;2297;51.442;6.996;2023-12-20T03:26:20;100199.72;;;8.26;58.16
4570;BME280;2297;51.442;6.996;2023-12-20T03:28:48;100199.97;;;8.04;58.42
4570;BME280;2297;51.442;6.996;2023-12-20T03:31:16;100208.44;;;8.31;58.18
4570;BME280;2297;51.442;6.996;2023-12-20T03:33:43;100198.69;;;8.39;57.78
4570;BME280;2297;51.442;6.996;2023-12-20T03:36:09;100207.03;;;8.02;58.05
4570;BME280;2297;51.442;6.996;2023-12-20T03:38:36;100188.25;;;7.58;59.34
4570;BME280;2297;51.442;6.996;2023-12-20T03:41:04;100193.22;;;7.81;59.11
4570;BME280;2297;51.442;6.996;2023-12-20T03:43:30;100194.13;;;7.82;58.60
4570;BME280;2297;51.442;6.996;2023-12-20T03:45:57;100181.06;;;7.71;59.11
4570;BME280;2297;51.442;6.996;2023-12-20T03:48:26;100194.03;;;7.88;58.78
4570;BME280;2297;51.442;6.996;2023-12-20T03:50:53;100192.28;;;7.90;59.01
4570;BME280;2297;51.442;6.996;2023-12-20T03:53:20;100196.03;;;7.64;59.39
4570;BME280;2297;51.442;6.996;2023-12-20T03:55:46;100194.25;;;7.68;58.86
4570;BME280;2297;51.442;6.996;2023-12-20T03:58:13;100196.03;;;7.64;59.29
4570;BME280;2297;51.442;6.996;2023-12-20T04:00:39;100199.88;;;7.31;60.30
4570;BME280;2297;51.442;6.996;2023-12-20T04:03:10;100199.53;;;7.68;59.26
4570;BME280;2297;51.442;6.996;2023-12-20T04:05:41;100195.31;;;7.52;59.15
4570;BME280;2297;51.442;6.996;2023-12-20T04:08:09;100210.06;;;7.67;58.89
4570;BME280;2297;51.442;6.996;2023-12-20T04:10:36;100192.72;;;7.47;59.83
4570;BME280;2297;51.442;6.996;2023-12-20T04:13:03;100191.88;;;7.43;59.20
4570;BME280;2297;51.442;6.996;2023-12-20T04:15:33;100190.16;;;7.39;59.66
4570;BME280;2297;51.442;6.996;2023-12-20T04:18:00;100191.06;;;7.38;59.26
4570;BME280;2297;51.442;6.996;2023-12-20T04:20:26;100184.88;;;7.41;59.48
4570;BME280;2297;51.442;6.996;2023-12-20T04:22:54;100185.63;;;7.55;59.48
4570;BME280;2297;51.442;6.996;2023-12-20T04:25:21;100184.81;;;7.52;59.13
4570;BME280;2297;51.442;6.996;2023-12-20T04:27:47;100186.38;;;7.68;58.99
4570;BME280;2297;51.442;6.996;2023-12-20T04:30:14;100193.72;;;7.38;59.67
4570;BME280;2297;51.442;6.996;2023-12-20T04:32:41;100174.16;;;7.64;59.08
4570;BME280;2297;51.442;6.996;2023-12-20T04:35:07;100187.25;;;7.69;58.87
4570;BME280;2297;51.442;6.996;2023-12-20T04:37:34;100191.97;;;7.37;59.33
4570;BME280;2297;51.442;6.996;2023-12-20T04:40:03;100190.38;;;7.14;60.04
4570;BME280;2297;51.442;6.996;2023-12-20T04:42:30;100195.69;;;7.07;60.62
4570;BME280;2297;51.442;6.996;2023-12-20T04:44:57;100195.22;;;7.59;59.49
4570;BME280;2297;51.442;6.996;2023-12-20T04:47:24;100192.94;;;7.24;60.21
4570;BME280;2297;51.442;6.996;2023-12-20T04:49:50;100194.59;;;7.34;59.71
4570;BME280;2297;51.442;6.996;2023-12-20T04:52:17;100198.00;;;7.45;59.18
4570;BME280;2297;51.442;6.996;2023-12-20T04:54:44;100200.53;;;7.55;59.10
4570;BME280;2297;51.442;6.996;2023-12-20T04:57:12;100198.09;;;7.36;59.56
4570;BME280;2297;51.442;6.996;2023-12-20T04:59:39;100190.38;;;7.11;60.09
4570;BME280;2297;51.442;6.996;2023-12-20T05:02:06;100182.41;;;7.22;60.08
4570;BME280;2297;51.442;6.996;2023-12-20T05:04:33;100199.72;;;7.48;59.25
4570;BME280;2297;51.442;6.996;2023-12-20T05:06:59;100197.09;;;7.50;59.46
4570;BME280;2297;51.442;6.996;2023-12-20T05:09:26;100205.06;;;7.39;59.44
4570;BME280;2297;51.442;6.996;2023-12-20T05:11:53;100194.66;;;7.29;59.83
4570;BME280;2297;51.442;6.996;2023-12-20T05:14:21;100193.81;;;7.23;60.03
4570;BME280;2297;51.442;6.996;2023-12-20T05:16:48;100199.94;;;7.28;59.65
4570;BME280;2297;51.442;6.996;2023-12-20T05:19:17;100185.03;;;7.27;59.59
4570;BME280;2297;51.442;6.996;2023-12-20T05:21:43;100198.84;;;7.49;59.13
4570;BME280;2297;51.442;6.996;2023-12-20T05:24:10;100197.03;;;7.53;59.09
4570;BME280;2297;51.442;6.996;2023-12-20T05:26:37;100200.72;;;7.36;58.92
4570;BME280;2297;51.442;6.996;2023-12-20T05:29:03;100203.59;;;7.02;60.74
4570;BME280;2297;51.442;6.996;2023-12-20T05:31:32;100202.75;;;7.00;60.71
4570;BME280;2297;51.442;6.996;2023-12-20T05:33:59;100188.38;;;7.43;59.49
4570;BME280;2297;51.442;6.996;2023-12-20T05:36:25;100189.59;;;7.03;60.20
4570;BME280;2297;51.442;6.996;2023-12-20T05:38:52;100189.44;;;7.22;59.78
4570;BME280;2297;51.442;6.996;2023-12-20T05:41:19;100185.03;;;7.24;60.01
4570;BME280;2297;51.442;6.996;2023-12-20T05:43:47;100184.22;;;7.15;60.14
4570;BME280;2297;51.442;6.996;2023-12-20T05:46:13;100181.50;;;7.31;59.63
4570;BME280;2297;51.442;6.996;2023-12-20T05:48:41;100183.34;;;7.20;60.26
4570;BME280;2297;51.442;6.996;2023-12-20T05:51:11;100189.44;;;7.26;59.77
4570;BME280;2297;51.442;6.996;2023-12-20T05:53:38;100192.03;;;7.25;59.54
4570;BME280;2297;51.442;6.996;2023-12-20T05:56:05;100196.28;;;7.43;59.63
4570;BME280;2297;51.442;6.996;2023-12-20T05:58:32;100193.63;;;7.47;59.49
4570;BME280;2297;51.442;6.996;2023-12-20T06:00:58;100192.78;;;7.39;59.57
4570;BME280;2297;51.442;6.996;2023-12-20T06:03:25;100191.78;;;7.54;59.02
4570;BME280;2297;51.442;6.996;2023-12-20T06:05:53;100183.22;;;7.35;59.59
4570;BME280;2297;51.442;6.996;2023-12-20T06:08:20;100188.38;;;7.44;59.18
4570;BME280;2297;51.442;6.996;2023-12-20T06:10:46;100178.88;;;7.31;59.94
4570;BME280;2297;51.442;6.996;2023-12-20T06:13:13;100188.44;;;7.40;59.24
4570;BME280;2297;51.442;6.996;2023-12-20T06:16:13;100198.97;;;7.38;59.44
4570;BME280;2297;51.442;6.996;2023-12-20T06:18:40;100189.34;;;7.34;59.61
4570;BME280;2297;51.442;6.996;2023-12-20T06:21:08;100195.72;;;7.05;60.00
4570;BME280;2297;51.442;6.996;2023-12-20T06:23:38;100179.78;;;7.24;59.80
4570;BME280;2297;51.442;6.996;2023-12-20T06:26:05;100188.50;;;7.32;59.71
4570;BME280;2297;51.442;6.996;2023-12-20T06:28:31;100189.34;;;7.32;60.01
4570;BME280;2297;51.442;6.996;2023-12-20T06:30:58;100199.94;;;7.26;59.76
4570;BME280;2297;51.442;6.996;2023-12-20T06:33:25;100200.88;;;7.11;60.23
4570;BME280;2297;51.442;6.996;2023-12-20T06:35:52;100206.13;;;7.14;60.09
4570;BME280;2297;51.442;6.996;2023-12-20T06:38:20;100185.03;;;7.28;59.89
4570;BME280;2297;51.442;6.996;2023-12-20T06:40:47;100180.66;;;7.27;60.03
4570;BME280;2297;51.442;6.996;2023-12-20T06:43:14;100184.91;;;7.39;59.76
4570;BME280;2297;51.442;6.996;2023-12-20T06:45:40;100191.16;;;7.26;60.05
4570;BME280;2297;51.442;6.996;2023-12-20T06:48:16;100204.50;;;7.01;60.36
4570;BME280;2297;51.442;6.996;2023-12-20T06:50:43;100190.41;;;7.10;60.49
4570;BME280;2297;51.442;6.996;2023-12-20T06:53:10;100198.88;;;7.44;59.37
4570;BME280;2297;51.442;6.996;2023-12-20T06:55:38;100206.22;;;7.05;60.43
4570;BME280;2297;51.442;6.996;2023-12-20T06:58:05;100198.03;;;7.44;59.67
4570;BME280;2297;51.442;6.996;2023-12-20T07:00:32;100187.66;;;7.27;60.12
4570;BME280;2297;51.442;6.996;2023-12-20T07:03:00;100197.88;;;7.58;58.96
4570;BME280;2297;51.442;6.996;2023-12-20T07:05:26;100191.78;;;7.53;58.75
4570;BME280;2297;51.442;6.996;2023-12-20T07:07:53;100181.16;;;7.65;58.54
4570;BME280;2297;51.442;6.996;2023-12-20T07:10:20;100187.13;;;7.81;57.98
4570;BME280;2297;51.442;6.996;2023-12-20T07:12:48;100179.41;;;7.64;58.47
4570;BME280;2297;51.442;6.996;2023-12-20T07:15:16;100182.25;;;7.41;59.05
4570;BME280;2297;51.442;6.996;2023-12-20T07:17:43;100178.75;;;7.45;59.27
4570;BME280;2297;51.442;6.996;2023-12-20T07:20:11;100188.28;;;7.54;58.94
4570;BME280;2297;51.442;6.996;2023-12-20T07:22:38;100180.56;;;7.38;59.37
4570;BME280;2297;51.442;6.996;2023-12-20T07:25:05;100163.91;;;7.39;59.06
4570;BME280;2297;51.442;6.996;2023-12-20T07:27:32;100175.31;;;7.35;59.34
4570;BME280;2297;51.442;6.996;2023-12-20T07:30:00;100176.19;;;7.37;59.21
4570;BME280;2297;51.442;6.996;2023-12-20T07:32:27;100182.19;;;7.52;58.97
4570;BME280;2297;51.442;6.996;2023-12-20T07:34:53;100189.28;;;7.42;58.99
4570;BME280;2297;51.442;6.996;2023-12-20T07:37:20;100176.34;;;7.14;59.83
4570;BME280;2297;51.442;6.996;2023-12-20T07:39:47;100191.72;;;7.59;58.86
4570;BME280;2297;51.442;6.996;2023-12-20T07:42:14;100195.34;;;7.47;59.05
4570;BME280;2297;51.442;6.996;2023-12-20T07:44:40;100187.56;;;7.36;59.31
4570;BME280;2297;51.442;6.996;2023-12-20T07:47:09;100189.81;;;7.73;58.19
4570;BME280;2297;51.442;6.996;2023-12-20T07:49:37;100192.91;;;7.27;59.38
4570;BME280;2297;51.442;6.996;2023-12-20T07:52:04;100189.50;;;7.14;60.00
4570;BME280;2297;51.442;6.996;2023-12-20T07:54:33;100193.44;;;7.63;58.57
4570;BME280;2297;51.442;6.996;2023-12-20T07:57:00;100187.06;;;7.86;57.90
4570;BME280;2297;51.442;6.996;2023-12-20T07:59:26;100191.69;;;7.65;57.70
4570;BME280;2297;51.442;6.996;2023-12-20T08:01:53;100187.25;;;7.67;58.11
4570;BME280;2297;51.442;6.996;2023-12-20T08:04:21;100195.63;;;8.02;57.34
4570;BME280;2297;51.442;6.996;2023-12-20T08:06:48;100187.84;;;7.94;57.40
4570;BME280;2297;51.442;6.996;2023-12-20T08:09:15;100188.06;;;7.75;57.93
4570;BME280;2297;51.442;6.996;2023-12-20T08:11:44;100187.13;;;7.81;57.86
4570;BME280;2297;51.442;6.996;2023-12-20T08:14:11;100182.13;;;7.56;58.20
4570;BME280;2297;51.442;6.996;2023-12-20T08:16:38;100181.34;;;7.46;58.17
4570;BME280;2297;51.442;6.996;2023-12-20T08:19:05;100177.56;;;7.72;57.62
4570;BME280;2297;51.442;6.996;2023-12-20T08:21:33;100182.72;;;7.85;57.26
4570;BME280;2297;51.442;6.996;2023-12-20T08:24:00;100182.50;;;8.03;56.91
4570;BME280;2297;51.442;6.996;2023-12-20T08:26:27;100195.16;;;7.67;57.71
4570;BME280;2297;51.442;6.996;2023-12-20T08:28:53;100194.31;;;7.63;57.86
4570;BME280;2297;51.442;6.996;2023-12-20T08:31:20;100186.34;;;7.71;57.54
4570;BME280;2297;51.442;6.996;2023-12-20T08:33:48;100183.00;;;7.57;58.02
4570;BME280;2297;51.442;6.996;2023-12-20T08:36:15;100199.50;;;7.73;57.59
4570;BME280;2297;51.442;6.996;2023-12-20T08:38:44;100195.75;;;7.92;56.83
4570;BME280;2297;51.442;6.996;2023-12-20T08:41:11;100196.25;;;7.44;57.91
4570;BME280;2297;51.442;6.996;2023-12-20T08:43:37;100209.38;;;7.44;58.07
4570;BME280;2297;51.442;6.996;2023-12-20T08:46:05;100203.94;;;7.66;57.80
4570;BME280;2297;51.442;6.996;2023-12-20T08:48:32;100204.13;;;7.44;57.90
4570;BME280;2297;51.442;6.996;2023-12-20T08:50:58;100213.81;;;7.39;58.43
4570;BME280;2297;51.442;6.996;2023-12-20T08:53:25;100193.31;;;7.74;57.45
4570;BME280;2297;51.442;6.996;2023-12-20T08:55:53;100196.94;;;7.65;57.63
4570;BME280;2297;51.442;6.996;2023-12-20T08:58:20;100194.44;;;7.51;57.71
4570;BME280;2297;51.442;6.996;2023-12-20T09:00:47;100188.72;;;7.94;56.92
4570;BME280;2297;51.442;6.996;2023-12-20T09:03:13;100198.44;;;7.88;57.08
4570;BME280;2297;51.442;6.996;2023-12-20T09:05:40;100190.59;;;7.85;56.60
4570;BME280;2297;51.442;6.996;2023-12-20T09:08:07;100183.50;;;7.91;56.44
4570;BME280;2297;51.442;6.996;2023-12-20T09:10:35;100177.56;;;7.72;56.80
4570;BME280;2297;51.442;6.996;2023-12-20T09:13:03;100188.41;;;7.41;58.04
4570;BME280;2297;51.442;6.996;2023-12-20T09:15:30;100175.81;;;7.74;56.96
4570;BME280;2297;51.442;6.996;2023-12-20T09:17:59;100168.81;;;7.73;56.88
4570;BME280;2297;51.442;6.996;2023-12-20T09:20:26;100177.66;;;7.64;57.17
4570;BME280;2297;51.442;6.996;2023-12-20T09:22:55;100181.72;;;7.92;56.36
4570;BME280;2297;51.442;6.996;2023-12-20T09:25:22;100168.91;;;7.64;57.27
4570;BME280;2297;51.442;6.996;2023-12-20T09:27:49;100185.47;;;7.71;56.86
4570;BME280;2297;51.442;6.996;2023-12-20T09:30:17;100179.47;;;7.61;57.01
4570;BME280;2297;51.442;6.996;2023-12-20T09:32:43;100182.22;;;7.45;57.27
4570;BME280;2297;51.442;6.996;2023-12-20T09:35:10;100188.31;;;7.51;57.32
4570;BME280;2297;51.442;6.996;2023-12-20T09:37:37;100181.31;;;7.50;57.70
4570;BME280;2297;51.442;6.996;2023-12-20T09:40:04;100169.22;;;7.33;57.94
4570;BME280;2297;51.442;6.996;2023-12-20T09:42:37;100188.59;;;7.17;58.05
4570;BME280;2297;51.442;6.996;2023-12-20T09:45:08;100179.34;;;7.69;56.77
4570;BME280;2297;51.442;6.996;2023-12-20T09:47:36;100172.19;;;7.85;56.72
4570;BME280;2297;51.442;6.996;2023-12-20T09:50:03;100177.84;;;7.47;57.59
4570;BME280;2297;51.442;6.996;2023-12-20T09:52:31;100176.34;;;7.19;58.05
4570;BME280;2297;51.442;6.996;2023-12-20T09:55:01;100177.63;;;7.68;57.28
4570;BME280;2297;51.442;6.996;2023-12-20T09:57:31;100180.16;;;7.77;56.74
4570;BME280;2297;51.442;6.996;2023-12-20T09:59:57;100184.28;;;7.98;55.79
4570;BME280;2297;51.442;6.996;2023-12-20T10:02:25;100177.00;;;7.44;57.74
4570;BME280;2297;51.442;6.996;2023-12-20T10:04:54;100194.50;;;7.45;57.54
4570;BME280;2297;51.442;6.996;2023-12-20T10:07:21;100178.16;;;7.10;58.76
4570;BME280;2297;51.442;6.996;2023-12-20T10:09:48;100178.63;;;7.57;57.86
4570;BME280;2297;51.442;6.996;2023-12-20T10:12:15;100179.72;;;7.31;57.93
4570;BME280;2297;51.442;6.996;2023-12-20T10:14:41;100180.16;;;7.74;57.30
4570;BME280;2297;51.442;6.996;2023-12-20T10:17:08;100180.97;;;7.80;57.27
4570;BME280;2297;51.442;6.996;2023-12-20T10:19:36;100174.16;;;7.64;57.57
4570;BME280;2297;51.442;6.996;2023-12-20T10:22:05;100181.44;;;7.37;58.30
4570;BME280;2297;51.442;6.996;2023-12-20T10:24:32;100171.53;;;7.64;58.35
4570;BME280;2297;51.442;6.996;2023-12-20T10:27:13;100173.69;;;8.04;56.78
4570;BME280;2297;51.442;6.996;2023-12-20T10:29:42;100154.47;;;7.97;56.80
4570;BME280;2297;51.442;6.996;2023-12-20T10:32:23;100151.94;;;7.90;56.98
4570;BME280;2297;51.442;6.996;2023-12-20T10:34:50;100143.59;;;7.57;57.40
4570;BME280;2297;51.442;6.996;2023-12-20T10:37:21;100136.72;;;7.42;58.01
4570;BME280;2297;51.442;6.996;2023-12-20T10:39:50;100144.38;;;7.62;57.89
4570;BME280;2297;51.442;6.996;2023-12-20T10:42:18;100135.28;;;7.91;57.21
4570;BME280;2297;51.442;6.996;2023-12-20T10:44:46;100138.78;;;7.93;56.67
4570;BME280;2297;51.442;6.996;2023-12-20T10:47:13;100147.34;;;8.07;56.37
4570;BME280;2297;51.442;6.996;2023-12-20T10:49:40;100138.47;;;8.14;55.93
4570;BME280;2297;51.442;6.996;2023-12-20T10:52:11;100149.72;;;7.53;57.62
4570;BME280;2297;51.442;6.996;2023-12-20T10:54:39;100144.47;;;7.56;57.87
4570;BME280;2297;51.442;6.996;2023-12-20T10:57:06;100140.47;;;7.97;57.11
4570;BME280;2297;51.442;6.996;2023-12-20T10:59:33;100132.53;;;8.00;56.98
4570;BME280;2297;51.442;6.996;2023-12-20T11:02:03;100141.41;;;7.90;57.05
4570;BME280;2297;51.442;6.996;2023-12-20T11:04:36;100149.97;;;8.09;56.77
4570;BME280;2297;51.442;6.996;2023-12-20T11:07:11;100159.47;;;8.21;56.16
4570;BME280;2297;51.442;6.996;2023-12-20T11:09:49;100140.41;;;8.00;56.58
4570;BME280;2297;51.442;6.996;2023-12-20T11:12:24;100152.47;;;8.18;56.28
4570;BME280;2297;51.442;6.996;2023-12-20T11:14:53;100145.78;;;7.91;57.02
4570;BME280;2297;51.442;6.996;2023-12-20T11:17:22;100139.00;;;7.74;57.36
4570;BME280;2297;51.442;6.996;2023-12-20T11:20:07;100144.16;;;7.80;57.77
4570;BME280;2297;51.442;6.996;2023-12-20T11:22:35;100140.22;;;8.15;57.16
4570;BME280;2297;51.442;6.996;2023-12-20T11:25:06;100137.66;;;8.11;57.41
4570;BME280;2297;51.442;6.996;2023-12-20T11:27:34;100128.47;;;7.74;58.12
4570;BME280;2297;51.442;6.996;2023-12-20T11:30:06;100120.69;;;8.32;56.54
4570;BME280;2297;51.442;6.996;2023-12-20T11:32:34;100124.31;;;8.25;56.62
4570;BME280;2297;51.442;6.996;2023-12-20T11:35:17;100131.72;;;7.95;57.29
4570;BME280;2297;51.442;6.996;2023-12-20T11:37:45;100121.66;;;8.26;56.86
4570;BME280;2297;51.442;6.996;2023-12-20T11:40:15;100115.41;;;8.35;56.36
4570;BME280;2297;51.442;6.996;2023-12-20T11:46:04;100120.78;;;8.24;57.43
4570;BME280;2297;51.442;6.996;2023-12-20T11:48:31;100136.47;;;8.35;56.80
4570;BME280;2297;51.442;6.996;2023-12-20T11:50:58;100106.63;;;8.35;57.22
4570;BME280;2297;51.442;6.996;2023-12-20T11:53:25;100115.56;;;8.23;57.12
4570;BME280;2297;51.442;6.996;2023-12-20T11:55:53;100108.97;;;7.94;58.05
4570;BME280;2297;51.442;6.996;2023-12-20T11:58:20;100113.97;;;8.12;57.66
4570;BME280;2297;51.442;6.996;2023-12-20T12:00:48;100110.00;;;7.82;59.26
4570;BME280;2297;51.442;6.996;2023-12-20T12:03:15;100107.25;;;7.91;58.76
4570;BME280;2297;51.442;6.996;2023-12-20T12:05:42;100112.03;;;7.58;59.52
4570;BME280;2297;51.442;6.996;2023-12-20T12:08:09;100094.41;;;7.65;59.58
4570;BME280;2297;51.442;6.996;2023-12-20T12:10:35;100089.31;;;8.20;58.61
4570;BME280;2297;51.442;6.996;2023-12-20T12:13:03;100088.97;;;7.82;59.92
4570;BME280;2297;51.442;6.996;2023-12-20T12:15:30;100082.50;;;8.06;59.13
4570;BME280;2297;51.442;6.996;2023-12-20T12:17:57;100088.97;;;8.41;58.09
4570;BME280;2297;51.442;6.996;2023-12-20T12:20:24;100081.50;;;8.13;58.84
4570;BME280;2297;51.442;6.996;2023-12-20T12:22:58;100072.66;;;8.19;58.58
4570;BME280;2297;51.442;6.996;2023-12-20T12:25:26;100060.41;;;8.18;58.87
4570;BME280;2297;51.442;6.996;2023-12-20T12:27:55;100077.94;;;8.18;58.71
4570;BME280;2297;51.442;6.996;2023-12-20T12:30:24;100080.09;;;8.48;58.06
4570;BME280;2297;51.442;6.996;2023-12-20T12:32:51;100091.56;;;8.43;57.80
4570;BME280;2297;51.442;6.996;2023-12-20T12:35:18;100073.69;;;8.65;57.27
4570;BME280;2297;51.442;6.996;2023-12-20T12:37:45;100080.84;;;8.57;57.35
4570;BME280;2297;51.442;6.996;2023-12-20T12:40:13;100076.63;;;8.46;57.60
4570;BME280;2297;51.442;6.996;2023-12-20T12:42:42;100077.22;;;8.67;56.75
4570;BME280;2297;51.442;6.996;2023-12-20T12:45:09;100070.94;;;8.74;56.72
4570;BME280;2297;51.442;6.996;2023-12-20T12:47:38;100072.59;;;8.81;56.25
4570;BME280;2297;51.442;6.996;2023-12-20T12:50:05;100071.06;;;8.65;56.96
4570;BME280;2297;51.442;6.996;2023-12-20T12:52:32;100062.63;;;8.44;57.48
4570;BME280;2297;51.442;6.996;2023-12-20T12:55:00;100060.97;;;8.37;58.03
4570;BME280;2297;51.442;6.996;2023-12-20T12:57:27;100064.59;;;8.30;57.86
4570;BME280;2297;51.442;6.996;2023-12-20T12:59:54;100059.78;;;8.57;57.37
4570;BME280;2297;51.442;6.996;2023-12-20T13:02:20;100057.16;;;8.57;57.36
4570;BME280;2297;51.442;6.996;2023-12-20T13:04:49;100054.19;;;8.78;56.81
4570;BME280;2297;51.442;6.996;2023-12-20T13:07:15;100049.56;;;8.38;57.54
4570;BME280;2297;51.442;6.996;2023-12-20T13:09:42;100052.59;;;8.68;57.14
4570;BME280;2297;51.442;6.996;2023-12-20T13:15:31;100038.44;;;8.21;58.20
4570;BME280;2297;51.442;6.996;2023-12-20T13:17:58;100020.56;;;8.41;57.73
4570;BME280;2297;51.442;6.996;2023-12-20T13:20:26;100029.22;;;8.48;57.84
4570;BME280;2297;51.442;6.996;2023-12-20T13:22:56;100027.56;;;8.42;58.13
4570;BME280;2297;51.442;6.996;2023-12-20T13:25:23;100037.38;;;8.32;58.36
4570;BME280;2297;51.442;6.996;2023-12-20T13:27:50;100029.00;;;8.07;59.08
4570;BME280;2297;51.442;6.996;2023-12-20T13:30:17;100014.22;;;7.98;59.86